Time;durP1;ratioP1;P1;durP2;ratioP2;P2;SDS_P1;SDS_P2;PMS_P1;PMS_P2;Temp;Humidity;BMP_temperature;BMP_pressure;BME280_temperature;BME280_humidity;BME280_pressure;Samples;Min_cycle;Max_cycle;Signal;HPM_P1;HPM_P2
2020/12/02 00:00:27;;;;;;;40.63;29.40;;;3.50;77.70;;;;;;3231722;33;20360;-79
2020/12/02 00:02:54;;;;;;;44.00;31.30;;;;;;;;;;3234092;33;20911;-79
2020/12/02 00:05:13;;;;;;;44.60;33.83;;;4.30;72.10;;;;;;3231215;40;20400;-76
2020/12/02 00:07:29;;;;;;;40.67;30.23;;;;;;;;;;3237250;32;20377;-81
2020/12/02 00:09:46;;;;;;;46.07;32.23;;;;;;;;;;3242320;33;20381;-79
2020/12/02 00:12:05;;;;;;;38.93;30.40;;;5.20;78.00;;;;;;3239359;40;20364;-79
2020/12/02 00:14:25;;;;;;;42.53;32.13;;;;;;;;;;3239404;40;20342;-78
2020/12/02 00:16:41;;;;;;;42.20;32.27;;;;;;;;;;3236476;40;20382;-80
2020/12/02 00:18:58;;;;;;;38.70;30.33;;;;;;;;;;3232057;40;20377;-78
2020/12/02 00:21:14;;;;;;;40.77;31.17;;;4.60;77.80;;;;;;3229294;40;20455;-78
2020/12/02 00:23:30;;;;;;;40.33;30.40;;;;;;;;;;3234718;40;20529;-77
2020/12/02 00:25:47;;;;;;;43.03;31.37;;;3.40;71.50;;;;;;3230755;40;20531;-78
2020/12/02 00:28:03;;;;;;;41.27;30.73;;;;;;;;;;3231679;33;20396;-77
2020/12/02 00:30:19;;;;;;;43.67;31.47;;;;;;;;;;3223290;40;20810;-79
2020/12/02 00:32:36;;;;;;;40.53;30.70;;;;;;;;;;3224559;33;20714;-81
2020/12/02 00:34:52;;;;;;;42.13;30.23;;;;;;;;;;3227452;40;20404;-81
2020/12/02 00:37:10;;;;;;;43.43;31.90;;;;;;;;;;3235518;33;20384;-81
2020/12/02 00:39:26;;;;;;;40.77;29.80;;;;;;;;;;3238014;40;20395;-78
2020/12/02 00:41:46;;;;;;;41.83;30.57;;;4.40;72.20;;;;;;3239354;40;20420;-81
2020/12/02 00:44:02;;;;;;;42.27;31.53;;;3.80;77.70;;;;;;3240099;40;20372;-81
2020/12/02 00:46:18;;;;;;;42.50;31.67;;;;;;;;;;3240967;40;20400;-80
2020/12/02 00:48:35;;;;;;;41.00;31.13;;;;;;;;;;3244768;33;20380;-81
2020/12/02 00:50:54;;;;;;;43.00;31.60;;;;;;;;;;3243069;33;20471;-80
2020/12/02 00:53:13;;;;;;;43.23;32.80;;;3.60;71.70;;;;;;3241962;33;20984;-79
2020/12/02 00:55:29;;;;;;;46.07;33.00;;;;;;;;;;3241607;33;20982;-80
2020/12/02 00:57:46;;;;;;;43.33;32.30;;;;;;;;;;3241091;40;20388;-80
2020/12/02 01:00:07;;;;;;;44.20;31.83;;;3.80;71.70;;;;;;3244092;33;20381;-81
2020/12/02 01:02:32;;;;;;;39.83;29.93;;;4.00;72.00;;;;;;3240860;40;20958;-79
2020/12/02 01:04:48;;;;;;;40.57;30.17;;;;;;;;;;3240760;40;20392;-81
2020/12/02 01:07:04;;;;;;;40.63;30.87;;;4.60;78.20;;;;;;3241818;40;20368;-80
2020/12/02 01:09:21;;;;;;;42.87;32.37;;;4.60;78.00;;;;;;3240417;40;20830;-80
2020/12/02 01:11:37;;;;;;;41.60;31.27;;;;;;;;;;3241765;40;20372;-80
2020/12/02 01:13:55;;;;;;;43.80;32.03;;;;;;;;;;3232136;40;21016;-81
2020/12/02 01:16:16;;;;;;;43.30;32.13;;;4.10;72.10;;;;;;3241682;40;20388;-82
2020/12/02 01:18:33;;;;;;;41.50;31.93;;;;;;;;;;3242966;33;20971;-81
2020/12/02 01:20:53;;;;;;;45.23;31.67;;;;;;;;;;3241293;40;20467;-80
2020/12/02 01:23:14;;;;;;;44.13;32.13;;;3.90;72.20;;;;;;3241156;40;20365;-79
2020/12/02 01:25:30;;;;;;;43.93;33.23;;;;;;;;;;3241554;40;20394;-81
2020/12/02 01:27:50;;;;;;;43.40;32.83;;;3.20;72.20;;;;;;3241451;40;20424;-80
2020/12/02 01:30:09;;;;;;;45.20;32.60;;;4.00;72.80;;;;;;3244960;33;20353;-80
2020/12/02 01:32:25;;;;;;;41.10;31.17;;;;;;;;;;3242506;40;20432;-81
2020/12/02 01:34:47;;;;;;;42.17;32.30;;;;;;;;;;3245579;33;20388;-79
2020/12/02 01:37:21;;;;;;;42.30;31.10;;;3.30;72.40;;;;;;3242782;40;20479;-80
2020/12/02 01:39:42;;;;;;;39.90;29.93;;;;;;;;;;3246175;32;20417;-80
2020/12/02 01:41:59;;;;;;;43.03;31.87;;;;;;;;;;3243444;40;20403;-81
2020/12/02 01:44:15;;;;;;;43.43;31.73;;;;;;;;;;3243395;40;20431;-79
2020/12/02 01:46:39;;;;;;;41.27;31.03;;;3.60;72.20;;;;;;3244898;32;21103;-80
2020/12/02 01:49:06;;;;;;;42.93;32.03;;;;;;;;;;3243185;40;20395;-81
2020/12/02 01:51:46;;;;;;;42.77;31.40;;;3.90;72.30;;;;;;3243065;40;20856;-79
2020/12/02 01:54:08;;;;;;;43.67;32.03;;;5.80;73.40;;;;;;3243974;40;20372;-80
2020/12/02 01:56:28;;;;;;;42.63;31.37;;;;;;;;;;3227199;40;20444;-82
2020/12/02 01:58:54;;;;;;;42.63;31.80;;;3.40;71.90;;;;;;3235265;40;20345;-81
2020/12/02 02:01:16;;;;;;;43.90;31.13;;;3.30;71.70;;;;;;3246693;33;20381;-80
2020/12/02 02:03:35;;;;;;;41.40;30.53;;;;;;;;;;3245123;40;20368;-80
2020/12/02 02:05:54;;;;;;;42.73;32.20;;;;;;;;;;3226742;40;20425;-81
2020/12/02 02:08:10;;;;;;;44.87;32.00;;;;;;;;;;3244104;40;20387;-81
2020/12/02 02:10:31;;;;;;;45.17;32.63;;;;;;;;;;3244168;40;20460;-81
2020/12/02 02:13:28;;;;;;;42.53;32.67;;;3.10;71.50;;;;;;3237717;33;20479;-81
2020/12/02 02:15:50;;;;;;;44.20;32.00;;;3.90;72.00;;;;;;3218155;40;20840;-80
2020/12/02 02:18:08;;;;;;;47.90;34.57;;;;;;;;;;3239415;40;20372;-80
2020/12/02 02:20:29;;;;;;;47.50;33.47;;;3.40;71.60;;;;;;3238552;33;20399;-79
2020/12/02 02:22:48;;;;;;;44.17;32.47;;;;;;;;;;3243435;40;20357;-81
2020/12/02 02:25:11;;;;;;;46.47;33.60;;;5.80;73.00;;;;;;3235798;40;20384;-80
2020/12/02 02:27:29;;;;;;;44.03;32.47;;;3.10;71.40;;;;;;3243282;40;20377;-81
2020/12/02 02:29:47;;;;;;;48.33;34.63;;;;;;;;;;3244112;40;20375;-80
2020/12/02 02:32:09;;;;;;;44.13;33.50;;;3.60;71.80;;;;;;3234659;40;20407;-80
2020/12/02 02:34:26;;;;;;;49.73;35.37;;;3.50;72.00;;;;;;3236505;33;20369;-81
2020/12/02 02:36:43;;;;;;;48.50;34.80;;;;;;;;;;3235044;40;20448;-80
2020/12/02 02:38:59;;;;;;;48.70;34.73;;;;;;;;;;3237951;33;20828;-80
2020/12/02 02:41:15;;;;;;;51.87;36.80;;;;;;;;;;3245817;33;20388;-80
2020/12/02 02:43:33;;;;;;;50.53;36.57;;;;;;;;;;3235302;40;20905;-80
2020/12/02 02:45:49;;;;;;;50.53;36.30;;;;;;;;;;3235280;40;20412;-80
2020/12/02 02:48:06;;;;;;;51.97;37.30;;;;;;;;;;3244360;40;20784;-82
2020/12/02 02:50:23;;;;;;;50.17;36.17;;;;;;;;;;3244922;40;20327;-81
2020/12/02 02:52:39;;;;;;;50.90;35.80;;;;;;;;;;3230423;40;20516;-79
2020/12/02 02:54:55;;;;;;;49.80;35.40;;;;;;;;;;3227516;40;20365;-80
2020/12/02 02:57:13;;;;;;;50.77;35.90;;;;;;;;;;3245080;33;20642;-80
2020/12/02 02:59:30;;;;;;;50.67;36.10;;;;;;;;;;3238318;40;20396;-80
2020/12/02 03:01:46;;;;;;;52.00;35.23;;;;;;;;;;3242429;33;20368;-80
2020/12/02 03:04:06;;;;;;;50.20;35.53;;;;;;;;;;3236802;40;20388;-78
2020/12/02 03:06:22;;;;;;;49.60;35.27;;;;;;;;;;3240151;40;20934;-79
2020/12/02 03:08:38;;;;;;;51.77;36.13;;;;;;;;;;3244297;33;20380;-80
2020/12/02 03:10:56;;;;;;;49.00;35.60;;;;;;;;;;3231593;40;20369;-79
2020/12/02 03:13:16;;;;;;;53.87;36.50;;;;;;;;;;3243856;33;20372;-80
2020/12/02 03:15:34;;;;;;;51.73;35.20;;;3.40;74.50;;;;;;3241553;33;20778;-79
2020/12/02 03:17:51;;;;;;;52.80;37.00;;;;;;;;;;3239727;40;20428;-79
2020/12/02 03:20:14;;;;;;;51.90;35.63;;;3.70;74.90;;;;;;3242699;33;20458;-80
2020/12/02 03:22:31;;;;;;;50.83;35.83;;;;;;;;;;3241193;40;20755;-79
2020/12/02 03:24:50;;;;;;;51.63;35.90;;;;;;;;;;3241251;40;20377;-81
2020/12/02 03:27:07;;;;;;;56.07;37.17;;;;;;;;;;3237099;40;20930;-79
2020/12/02 03:29:24;;;;;;;56.27;37.43;;;3.70;75.00;;;;;;3244911;33;20391;-79
2020/12/02 03:31:41;;;;;;;53.63;37.17;;;;;;;;;;3241091;40;20486;-81
2020/12/02 03:34:00;;;;;;;52.00;36.90;;;;;;;;;;3239630;40;20353;-79
2020/12/02 03:36:17;;;;;;;55.67;37.50;;;2.10;80.80;;;;;;3237303;40;20381;-80
2020/12/02 03:38:34;;;;;;;56.13;37.63;;;;;;;;;;3241362;40;20444;-80
2020/12/02 03:40:50;;;;;;;57.13;37.80;;;;;;;;;;3240844;40;21247;-81
2020/12/02 03:43:06;;;;;;;55.33;37.93;;;;;;;;;;3237387;40;20399;-79
2020/12/02 03:45:23;;;;;;;50.37;35.60;;;;;;;;;;3241080;40;20470;-79
2020/12/02 03:47:40;;;;;;;53.77;37.80;;;;;;;;;;3238918;40;20384;-79
2020/12/02 03:49:56;;;;;;;56.20;38.77;;;;;;;;;;3240382;40;20451;-79
2020/12/02 03:52:12;;;;;;;53.57;37.03;;;;;;;;;;3241528;40;20415;-79
2020/12/02 03:54:29;;;;;;;52.70;35.87;;;;;;;;;;3240707;33;20438;-80
2020/12/02 03:56:45;;;;;;;55.43;38.03;;;3.00;81.20;;;;;;3232441;40;20373;-79
2020/12/02 03:59:01;;;;;;;55.67;38.70;;;;;;;;;;3240640;40;20476;-79
2020/12/02 04:01:18;;;;;;;51.53;36.53;;;;;;;;;;3232616;40;20405;-79
2020/12/02 04:03:37;;;;;;;52.60;36.33;;;;;;;;;;3241889;40;20456;-79
2020/12/02 04:05:54;;;;;;;54.43;36.33;;;;;;;;;;3244836;33;21044;-79
2020/12/02 04:08:10;;;;;;;52.90;36.00;;;;;;;;;;3241169;40;20403;-80
2020/12/02 04:10:25;;;;;;;55.77;36.30;;;;;;;;;;3243501;33;20801;-81
2020/12/02 04:12:42;;;;;;;51.83;35.43;;;;;;;;;;3241641;40;20376;-79
2020/12/02 04:14:58;;;;;;;52.30;36.60;;;;;;;;;;3232643;40;20473;-79
2020/12/02 04:17:15;;;;;;;50.40;35.80;;;;;;;;;;3241882;40;20388;-81
2020/12/02 04:19:32;;;;;;;53.67;37.07;;;1.10;74.70;;;;;;3232598;40;20421;-79
2020/12/02 04:21:48;;;;;;;51.03;36.83;;;;;;;;;;3232966;40;20384;-80
2020/12/02 04:24:07;;;;;;;55.53;38.40;;;;;;;;;;3233225;33;20381;-80
2020/12/02 04:26:26;;;;;;;59.20;37.93;;;;;;;;;;3232476;40;20377;-79
2020/12/02 04:28:42;;;;;;;57.23;36.20;;;;;;;;;;3231601;40;20388;-80
2020/12/02 04:30:59;;;;;;;57.50;37.23;;;;;;;;;;3233028;40;20904;-79
2020/12/02 04:33:15;;;;;;;56.70;35.70;;;;;;;;;;3231975;40;20372;-79
2020/12/02 04:35:32;;;;;;;53.17;36.67;;;;;;;;;;3236665;33;20373;-79
2020/12/02 04:37:49;;;;;;;54.83;37.07;;;;;;;;;;3232260;40;20911;-80
2020/12/02 04:40:07;;;;;;;54.70;36.73;;;3.60;76.70;;;;;;3246509;33;20439;-81
2020/12/02 04:42:27;;;;;;;55.70;37.07;;;3.70;76.90;;;;;;3232915;40;21270;-79
2020/12/02 04:44:47;;;;;;;55.27;37.83;;;1.20;75.50;;;;;;3234005;40;20380;-80
2020/12/02 04:47:11;;;;;;;53.90;37.40;;;1.30;75.70;;;;;;3233140;40;20345;-79
2020/12/02 04:49:31;;;;;;;56.87;36.70;;;2.80;76.60;;;;;;3233841;33;20408;-79
2020/12/02 04:51:50;;;;;;;52.37;37.07;;;;;;;;;;3233104;40;20394;-79
2020/12/02 04:54:14;;;;;;;54.37;36.23;;;;;;;;;;3242080;40;20388;-79
2020/12/02 04:56:30;;;;;;;55.67;37.17;;;;;;;;;;3242057;40;20352;-80
2020/12/02 04:58:48;;;;;;;56.63;40.00;;;;;;;;;;3233316;40;20461;-80
2020/12/02 05:01:16;;;;;;;58.60;39.33;;;3.50;76.80;;;;;;3233745;40;20439;-80
2020/12/02 05:03:33;;;;;;;55.90;37.03;;;;;;;;;;3243632;33;21093;-80
2020/12/02 05:06:00;;;;;;;58.57;38.57;;;1.30;75.20;;;;;;3234329;40;20377;-80
2020/12/02 05:08:26;;;;;;;56.23;37.63;;;3.70;76.50;;;;;;3243187;40;20461;-79
2020/12/02 05:10:42;;;;;;;58.13;39.37;;;3.20;82.90;;;;;;3245024;40;20369;-80
2020/12/02 05:13:10;;;;;;;56.07;38.90;;;3.80;76.80;;;;;;3237077;33;20373;-81
2020/12/02 05:15:27;;;;;;;56.60;38.20;;;;;;;;;;3227899;40;20460;-82
2020/12/02 05:17:44;;;;;;;61.10;37.03;;;;;;;;;;3244214;40;20352;-80
2020/12/02 05:20:06;;;;;;;56.13;38.43;;;;;;;;;;3244343;40;20413;-80
2020/12/02 05:22:22;;;;;;;55.80;37.53;;;;;;;;;;3234985;40;20415;-79
2020/12/02 05:24:47;;;;;;;53.03;37.43;;;1.50;76.30;;;;;;3243289;40;20376;-79
2020/12/02 05:27:04;;;;;;;54.23;36.67;;;;;;;;;;3235991;33;20507;-81
2020/12/02 05:29:37;;;;;;;56.53;37.77;;;2.40;77.00;;;;;;3242964;40;20494;-80
2020/12/02 05:32:00;;;;;;;54.77;37.53;;;3.70;77.60;;;;;;3227180;40;20392;-79
2020/12/02 05:34:18;;;;;;;55.93;36.53;;;3.30;76.80;;;;;;3234612;40;21014;-80
2020/12/02 05:36:38;;;;;;;59.13;38.27;;;3.80;77.70;;;;;;3244259;40;20406;-80
2020/12/02 05:38:56;;;;;;;58.37;38.77;;;;;;;;;;3226546;40;20365;-81
2020/12/02 05:41:15;;;;;;;53.43;37.40;;;1.70;76.60;;;;;;3235030;40;20388;-79
2020/12/02 05:43:39;;;;;;;60.83;38.67;;;3.80;77.90;;;;;;3236451;33;20381;-80
2020/12/02 05:45:59;;;;;;;58.30;38.43;;;;;;;;;;3237856;33;20802;-81
2020/12/02 05:48:21;;;;;;;57.63;37.53;;;1.90;76.80;;;;;;3245285;33;20447;-79
2020/12/02 05:50:40;;;;;;;59.13;37.53;;;;;;;;;;3229973;33;20421;-79
2020/12/02 05:53:04;;;;;;;54.47;36.30;;;1.30;76.10;;;;;;3242787;40;20325;-81
2020/12/02 05:55:24;;;;;;;54.83;36.07;;;3.90;77.50;;;;;;3232101;33;20373;-80
2020/12/02 05:57:55;;;;;;;54.63;37.90;;;3.80;77.40;;;;;;3243393;33;20427;-79
2020/12/02 06:00:11;;;;;;;57.33;37.87;;;;;;;;;;3245162;33;21104;-81
2020/12/02 06:02:27;;;;;;;53.53;36.60;;;;;;;;;;3243670;33;20396;-81
2020/12/02 06:04:51;;;;;;;61.70;39.40;;;3.70;77.10;;;;;;3245897;33;20988;-80
2020/12/02 06:07:07;;;;;;;55.17;37.03;;;;;;;;;;3243277;40;20392;-82
2020/12/02 06:09:38;;;;;;;54.90;37.37;;;1.10;75.40;;;;;;3239703;40;20380;-81
2020/12/02 06:12:03;;;;;;;53.60;36.47;;;3.80;77.10;;;;;;3234374;40;20388;-81
2020/12/02 06:14:29;;;;;;;58.07;35.77;;;;;;;;;;3232591;33;20381;-81
2020/12/02 06:16:46;;;;;;;51.47;34.83;;;;;;;;;;3242402;40;20424;-80
2020/12/02 06:19:04;;;;;;;53.97;36.53;;;;;;;;;;3243009;40;20383;-81
2020/12/02 06:21:36;;;;;;;57.00;36.53;;;1.40;75.80;;;;;;3242448;40;20985;-80
2020/12/02 06:23:56;;;;;;;51.53;34.10;;;;;;;;;;3236375;33;20384;-79
2020/12/02 06:26:13;;;;;;;55.93;36.53;;;;;;;;;;3242668;40;20384;-80
2020/12/02 06:28:45;;;;;;;54.40;35.80;;;;;;;;;;3247371;33;20400;-81
2020/12/02 06:31:08;;;;;;;60.07;37.60;;;1.80;75.80;;;;;;3234905;40;20393;-81
2020/12/02 06:33:31;;;;;;;59.03;40.23;;;1.60;75.60;;;;;;3243499;40;20369;-79
2020/12/02 06:36:01;;;;;;;62.33;37.27;;;3.70;77.10;;;;;;3241458;40;20417;-80
2020/12/02 06:38:29;;;;;;;53.90;35.67;;;;;;;;;;3243750;40;20427;-82
2020/12/02 06:41:24;;;;;;;56.70;35.97;;;1.50;75.90;;;;;;3245932;33;20938;-81
2020/12/02 06:43:51;;;;;;;53.90;36.33;;;3.80;77.30;;;;;;3239223;33;20329;-81
2020/12/02 06:46:13;;;;;;;51.93;35.50;;;1.10;76.00;;;;;;3240286;40;20384;-80
2020/12/02 06:48:34;;;;;;;54.10;34.87;;;;;;;;;;3242426;40;20388;-82
2020/12/02 06:50:51;;;;;;;53.90;35.90;;;;;;;;;;3245135;40;20348;-84
2020/12/02 06:53:14;;;;;;;54.17;34.93;;;2.30;76.90;;;;;;3241461;40;20368;-81
2020/12/02 06:55:30;;;;;;;53.93;36.80;;;;;;;;;;3239334;33;21009;-78
2020/12/02 06:57:47;;;;;;;55.97;37.23;;;0.80;81.70;;;;;;3230158;40;20440;-77
2020/12/02 07:00:07;;;;;;;57.67;38.17;;;;;;;;;;3220548;40;20520;-75
2020/12/02 07:02:42;;;;;;;57.13;36.03;;;;;;;;;;3229347;33;20487;-74
2020/12/02 07:04:58;;;;;;;55.00;35.23;;;;;;;;;;3229537;40;20394;-75
2020/12/02 07:07:16;;;;;;;50.87;34.80;;;1.70;74.80;;;;;;3233430;40;20746;-74
2020/12/02 07:09:32;;;;;;;50.40;33.60;;;;;;;;;;3238584;40;20376;-76
2020/12/02 07:11:49;;;;;;;51.90;34.27;;;;;;;;;;3238661;32;20498;-75
2020/12/02 07:14:19;;;;;;;59.10;36.00;;;2.10;73.80;;;;;;3238537;40;20377;-73
2020/12/02 07:16:35;;;;;;;50.40;33.07;;;3.60;79.60;;;;;;3237537;40;20772;-74
2020/12/02 07:18:56;;;;;;;51.40;34.77;;;;;;;;;;3238219;40;20376;-75
2020/12/02 07:21:18;;;;;;;52.90;34.17;;;;;;;;;;3237480;40;20408;-75
2020/12/02 07:23:35;;;;;;;100.97;60.00;;;1.80;78.20;;;;;;3240896;33;20380;-79
2020/12/02 07:25:56;;;;;;;56.40;35.83;;;;;;;;;;3238015;32;20376;-75
2020/12/02 07:28:16;;;;;;;51.33;33.60;;;;;;;;;;3233080;33;20532;-73
2020/12/02 07:30:36;;;;;;;48.10;31.97;;;2.10;78.10;;;;;;3237762;40;20403;-77
2020/12/02 07:32:54;;;;;;;52.60;33.67;;;2.30;74.10;;;;;;3235540;40;20411;-73
2020/12/02 07:35:15;;;;;;;51.60;33.17;;;;;;;;;;3238513;40;20383;-76
2020/12/02 07:37:31;;;;;;;52.83;33.23;;;2.50;77.60;;;;;;3237967;33;20407;-74
2020/12/02 07:39:49;;;;;;;48.23;32.83;;;3.40;78.20;;;;;;3238404;32;20404;-78
2020/12/02 07:42:16;;;;;;;49.83;33.93;;;1.50;73.10;;;;;;3237464;40;20698;-73
2020/12/02 07:44:36;;;;;;;52.33;33.80;;;;;;;;;;3238156;40;20376;-75
2020/12/02 07:46:54;;;;;;;53.57;34.17;;;;;;;;;;3239454;32;20391;-74
2020/12/02 07:49:10;;;;;;;57.53;36.90;;;1.70;72.90;;;;;;3241802;32;20392;-72
2020/12/02 07:51:29;;;;;;;52.23;35.27;;;;;;;;;;3244713;32;20401;-73
2020/12/02 07:53:55;;;;;;;53.43;34.03;;;1.80;72.60;;;;;;3235608;40;20394;-74
2020/12/02 07:56:16;;;;;;;52.43;33.90;;;;;;;;;;3237531;40;20399;-76
2020/12/02 07:58:40;;;;;;;49.87;31.90;;;;;;;;;;3235840;40;21008;-78
2020/12/02 08:00:58;;;;;;;51.03;33.60;;;2.80;77.00;;;;;;3238406;40;20407;-77
2020/12/02 08:03:33;;;;;;;47.07;32.93;;;;;;;;;;3236156;40;20392;-79
2020/12/02 08:05:56;;;;;;;50.60;33.03;;;2.30;73.20;;;;;;3238507;40;20950;-77
2020/12/02 08:08:12;;;;;;;50.57;34.33;;;;;;;;;;3233485;40;20391;-79
2020/12/02 08:10:33;;;;;;;49.87;31.73;;;2.30;73.20;;;;;;3240244;40;20376;-77
2020/12/02 08:12:49;;;;;;;50.63;32.87;;;;;;;;;;3238842;40;20392;-77
2020/12/02 08:15:07;;;;;;;53.23;32.97;;;2.40;76.70;;;;;;3234138;40;20382;-77
2020/12/02 08:17:26;;;;;;;43.40;30.73;;;2.50;76.80;;;;;;3251973;32;20999;-81
2020/12/02 08:19:43;;;;;;;46.63;31.70;;;;;;;;;;3252838;40;20325;-80
2020/12/02 08:21:59;;;;;;;48.77;32.93;;;;;;;;;;3254509;40;20329;-81
2020/12/02 08:24:27;;;;;;;51.53;33.10;;;2.00;73.40;;;;;;3251177;40;20337;-82
2020/12/02 08:26:56;;;;;;;46.70;31.93;;;;;;;;;;3278286;32;20870;-83
2020/12/02 08:29:12;;;;;;;43.17;29.70;;;;;;;;;;3245385;40;20460;-79
2020/12/02 08:31:30;;;;;;;38.93;27.70;;;;;;;;;;3249665;40;20337;-78
2020/12/02 08:34:04;;;;;;;43.23;29.17;;;;;;;;;;3238043;40;21058;-73
2020/12/02 08:36:23;;;;;;;44.10;30.50;;;1.80;76.50;;;;;;3238601;40;20493;-75
2020/12/02 08:38:41;;;;;;;45.60;29.10;;;3.60;77.50;;;;;;3239679;40;20345;-78
2020/12/02 08:40:58;;;;;;;43.83;28.60;;;3.00;77.00;;;;;;3238988;40;20858;-75
2020/12/02 08:43:25;;;;;;;41.00;27.30;;;3.00;73.30;;;;;;3238302;40;20692;-79
2020/12/02 08:45:59;;;;;;;39.70;26.23;;;;;;;;;;3242464;32;20430;-77
2020/12/02 08:48:15;;;;;;;37.60;27.30;;;;;;;;;;3238064;33;20431;-78
2020/12/02 08:50:31;;;;;;;41.13;27.73;;;4.00;73.30;;;;;;3223451;40;20404;-76
2020/12/02 08:52:50;;;;;;;41.23;27.47;;;;;;;;;;3241325;40;20459;-77
2020/12/02 08:55:06;;;;;;;66.03;43.47;;;;;;;;;;3239213;32;20878;-74
2020/12/02 08:57:22;;;;;;;41.93;27.33;;;3.40;76.40;;;;;;3246046;40;20403;-81
2020/12/02 08:59:42;;;;;;;37.63;25.97;;;;;;;;;;3249659;40;20462;-80
2020/12/02 09:02:02;;;;;;;39.90;27.27;;;;;;;;;;3254958;32;20352;-81
2020/12/02 09:04:19;;;;;;;42.60;27.17;;;;;;;;;;3251586;40;20380;-82
2020/12/02 09:08:44;;;;;;;37.07;25.30;;;;;;;;;;3252513;33;20363;-80
2020/12/02 09:11:01;;;;;;;38.57;27.10;;;;;;;;;;3254369;33;20422;-80
2020/12/02 09:13:18;;;;;;;41.80;27.57;;;2.20;74.90;;;;;;3249505;40;20414;-80
2020/12/02 09:15:35;;;;;;;38.13;26.73;;;;;;;;;;3241335;40;20376;-76
2020/12/02 09:17:51;;;;;;;39.23;29.37;;;;;;;;;;3241116;32;20467;-79
2020/12/02 09:20:08;;;;;;;39.67;27.53;;;;;;;;;;3229946;33;20994;-78
2020/12/02 09:22:24;;;;;;;42.47;27.53;;;2.80;73.60;;;;;;3237332;40;20391;-78
2020/12/02 09:24:41;;;;;;;37.43;27.30;;;4.30;74.10;;;;;;3235192;40;20440;-79
2020/12/02 09:26:57;;;;;;;37.90;25.83;;;3.10;70.20;;;;;;3236188;40;20458;-78
2020/12/02 09:29:15;;;;;;;37.17;26.60;;;3.70;70.20;;;;;;3238939;40;20399;-78
2020/12/02 09:31:34;;;;;;;41.23;29.03;;;;;;;;;;3238453;40;20364;-77
2020/12/02 09:33:50;;;;;;;43.53;29.60;;;;;;;;;;3242054;40;20409;-79
2020/12/02 09:36:06;;;;;;;40.63;26.30;;;;;;;;;;3242967;40;20870;-79
2020/12/02 09:38:23;;;;;;;36.40;26.30;;;;;;;;;;3246221;32;20410;-78
2020/12/02 09:40:39;;;;;;;40.07;27.00;;;3.60;72.10;;;;;;3238545;40;20372;-80
2020/12/02 09:43:07;;;;;;;40.83;28.37;;;;;;;;;;3246382;32;20375;-78
2020/12/02 09:45:29;;;;;;;39.73;29.23;;;;;;;;;;3238825;40;20388;-77
2020/12/02 09:47:49;;;;;;;40.40;27.60;;;;;;;;;;3243530;40;20753;-81
2020/12/02 09:50:07;;;;;;;36.97;26.07;;;;;;;;;;3261055;32;21112;-81
2020/12/02 09:52:40;;;;;;;36.23;27.03;;;4.30;68.80;;;;;;3245491;33;20328;-80
2020/12/02 09:55:00;;;;;;;39.37;27.67;;;3.90;71.30;;;;;;3250892;40;20325;-80
2020/12/02 09:57:23;;;;;;;40.33;27.63;;;;;;;;;;3247563;40;20384;-78
2020/12/02 09:59:41;;;;;;;37.23;27.50;;;;;;;;;;3247807;40;20333;-81
2020/12/02 10:02:11;;;;;;;39.10;26.60;;;3.60;67.80;;;;;;3242195;40;20368;-81
2020/12/02 10:04:41;;;;;;;39.97;27.10;;;;;;;;;;3244219;40;20420;-82
2020/12/02 10:07:39;;;;;;;36.17;25.90;;;3.90;68.20;;;;;;3238083;40;20356;-82
2020/12/02 10:10:02;;;;;;;36.83;25.80;;;;;;;;;;3245034;40;20392;-82
2020/12/02 10:12:23;;;;;;;41.97;27.03;;;;;;;;;;3243440;40;20325;-83
2020/12/02 10:15:25;;;;;;;37.93;26.37;;;3.80;67.70;;;;;;3249191;33;20325;-80
2020/12/02 10:18:00;;;;;;;35.97;25.90;;;;;;;;;;3235468;40;20357;-78
2020/12/02 10:20:33;;;;;;;40.20;27.13;;;4.00;67.20;;;;;;3516955;35;20354;-80
2020/12/02 10:23:00;;;;;;;35.37;25.90;;;;;;;;;;3234241;33;20457;-79
2020/12/02 10:25:31;;;;;;;34.93;24.80;;;3.40;67.00;;;;;;3238649;33;20342;-79
2020/12/02 10:28:02;;;;;;;33.67;25.33;;;3.90;67.30;;;;;;3250408;40;20395;-82
2020/12/02 10:30:21;;;;;;;36.13;24.40;;;;;;;;;;3242878;40;20771;-77
2020/12/02 10:33:07;;;;;;;39.90;24.30;;;5.30;67.90;;;;;;3230430;40;20396;-77
2020/12/02 10:35:27;;;;;;;35.73;27.27;;;;;;;;;;3225838;40;20388;-74
2020/12/02 10:37:44;;;;;;;40.17;28.40;;;3.00;68.30;;;;;;3231694;33;20400;-75
2020/12/02 10:40:01;;;;;;;40.70;28.73;;;;;;;;;;3231039;40;20475;-78
2020/12/02 10:42:26;;;;;;;42.53;27.67;;;;;;;;;;3233931;33;20565;-76
2020/12/02 10:44:49;;;;;;;41.80;28.07;;;;;;;;;;3234705;33;20499;-75
2020/12/02 10:47:45;;;;;;;38.40;28.17;;;5.50;67.20;;;;;;3229980;40;20377;-75
2020/12/02 10:50:01;;;;;;;31.93;25.03;;;3.90;66.10;;;;;;3229690;40;20922;-77
2020/12/02 10:52:19;;;;;;;35.20;24.10;;;4.70;69.30;;;;;;3230730;40;20369;-77
2020/12/02 10:54:37;;;;;;;35.97;25.53;;;;;;;;;;3220166;40;20560;-78
2020/12/02 10:56:57;;;;;;;36.13;26.93;;;3.70;66.10;;;;;;3240700;40;20368;-83
2020/12/02 10:59:14;;;;;;;38.87;28.47;;;;;;;;;;3242554;40;20420;-80
2020/12/02 11:01:30;;;;;;;40.67;28.17;;;;;;;;;;3232122;40;20345;-79
2020/12/02 11:03:47;;;;;;;40.03;27.93;;;;;;;;;;3243843;40;20345;-80
2020/12/02 11:06:34;;;;;;;38.83;27.43;;;3.20;66.90;;;;;;3249873;40;20365;-81
2020/12/02 11:09:06;;;;;;;40.97;29.13;;;4.80;67.90;;;;;;3251820;40;20380;-82
2020/12/02 11:11:35;;;;;;;37.20;28.03;;;4.00;70.70;;;;;;3238101;33;20451;-79
2020/12/02 11:13:56;;;;;;;35.40;26.87;;;;;;;;;;3239182;40;20409;-78
2020/12/02 11:16:20;;;;;;;35.97;26.37;;;3.60;67.00;;;;;;3229725;40;20471;-79
2020/12/02 11:19:15;;;;;;;43.30;28.07;;;4.80;67.80;;;;;;3231060;40;20372;-80
2020/12/02 11:21:42;;;;;;;35.53;26.97;;;;;;;;;;3243155;33;20344;-80
2020/12/02 11:24:19;;;;;;;42.77;28.83;;;;;;;;;;3233966;33;20520;-79
2020/12/02 11:26:37;;;;;;;39.30;29.07;;;;;;;;;;3240644;40;20378;-81
2020/12/02 11:28:55;;;;;;;38.10;27.23;;;;;;;;;;3241482;40;20396;-78
2020/12/02 11:31:31;;;;;;;27.17;20.83;;;6.30;67.20;;;;;;3232160;40;20345;-82
2020/12/02 11:34:00;;;;;;;22.67;17.80;;;3.80;68.80;;;;;;3235873;33;20441;-81
2020/12/02 11:36:44;;;;;;;22.93;16.00;;;5.50;62.70;;;;;;3248621;32;20478;-79
2020/12/02 11:39:17;;;;;;;22.13;15.67;;;6.10;59.70;;;;;;3238904;40;20441;-79
2020/12/02 11:41:40;;;;;;;20.57;16.43;;;;;;;;;;3243905;33;20454;-81
2020/12/02 11:44:00;;;;;;;20.60;16.40;;;;;;;;;;3243936;33;20360;-81
2020/12/02 11:46:17;;;;;;;22.43;17.17;;;;;;;;;;3249551;40;20395;-80
2020/12/02 11:48:37;;;;;;;24.13;18.40;;;;;;;;;;3235704;33;20380;-82
2020/12/02 11:51:06;;;;;;;25.10;18.97;;;8.00;53.80;;;;;;3237685;33;20387;-80
2020/12/02 11:53:28;;;;;;;36.20;25.67;;;;;;;;;;3228398;40;20760;-78
2020/12/02 11:55:46;;;;;;;24.57;17.87;;;;;;;;;;3235584;33;20392;-82
2020/12/02 11:58:04;;;;;;;23.07;17.30;;;;;;;;;;3240868;33;20875;-79
2020/12/02 12:00:22;;;;;;;23.57;17.40;;;;;;;;;;3232004;40;20979;-82
2020/12/02 12:02:58;;;;;;;23.47;17.30;;;7.00;58.70;;;;;;3230802;40;20903;-79
2020/12/02 12:05:22;;;;;;;19.87;15.93;;;7.50;59.50;;;;;;3229403;40;20389;-80
2020/12/02 12:07:43;;;;;;;20.33;16.30;;;;;;;;;;3221261;40;20396;-80
2020/12/02 12:10:07;;;;;;;19.67;16.27;;;5.80;62.20;;;;;;3220777;40;20870;-78
2020/12/02 12:12:32;;;;;;;22.20;17.13;;;5.70;59.40;;;;;;3233131;33;20415;-78
2020/12/02 12:14:57;;;;;;;98.13;67.20;;;6.40;62.80;;;;;;3237188;40;20341;-78
2020/12/02 12:17:19;;;;;;;25.40;18.50;;;;;;;;;;3229990;40;20447;-78
2020/12/02 12:19:42;;;;;;;22.40;17.13;;;5.60;58.70;;;;;;3225771;40;20397;-79
2020/12/02 12:22:16;;;;;;;22.57;17.47;;;;;;;;;;3237369;33;20360;-78
2020/12/02 12:24:32;;;;;;;21.10;16.50;;;;;;;;;;3226612;33;20936;-79
2020/12/02 12:26:49;;;;;;;23.20;17.80;;;;;;;;;;3222388;40;20377;-79
2020/12/02 12:29:07;;;;;;;24.20;18.07;;;;;;;;;;3228499;40;20364;-78
2020/12/02 12:31:27;;;;;;;23.80;18.80;;;;;;;;;;3222028;33;20396;-79
2020/12/02 12:33:51;;;;;;;23.30;17.83;;;7.20;59.60;;;;;;3230528;40;20474;-76
2020/12/02 12:36:11;;;;;;;25.43;18.17;;;;;;;;;;3211266;40;20417;-77
2020/12/02 12:38:36;;;;;;;25.57;17.70;;;6.10;58.70;;;;;;3230315;40;20392;-77
2020/12/02 12:40:56;;;;;;;21.07;17.13;;;;;;;;;;3236003;40;20786;-76
2020/12/02 12:43:17;;;;;;;23.70;17.57;;;;;;;;;;3227761;33;20385;-76
2020/12/02 12:45:36;;;;;;;23.83;18.27;;;;;;;;;;3218699;33;20404;-76
2020/12/02 12:47:55;;;;;;;22.77;18.20;;;;;;;;;;3229748;33;20392;-77
2020/12/02 12:50:14;;;;;;;23.07;18.30;;;;;;;;;;3228511;40;20403;-77
2020/12/02 12:52:48;;;;;;;24.03;18.20;;;;;;;;;;3229212;33;20464;-78
2020/12/02 12:55:06;;;;;;;27.47;18.03;;;;;;;;;;3219490;40;20405;-78
2020/12/02 12:57:26;;;;;;;24.70;19.53;;;;;;;;;;3219056;40;20416;-77
2020/12/02 12:59:43;;;;;;;26.70;18.27;;;5.20;59.40;;;;;;3219391;40;20384;-77
2020/12/02 13:01:59;;;;;;;24.13;18.47;;;;;;;;;;3218950;40;20364;-77